Time;durP1;ratioP1;P1;durP2;ratioP2;P2;SDS_P1;SDS_P2;PMS_P1;PMS_P2;Temp;Humidity;BMP_temperature;BMP_pressure;BME280_temperature;BME280_humidity;BME280_pressure;Samples;Min_cycle;Max_cycle;Signal;HPM_P1;HPM_P2
2023/01/29 00:01:05;;;;;;;22.35;13.25;;;;;;;;;;5071569;28;20040;-79
2023/01/29 00:03:32;;;;;;;28.40;14.10;;;;;;;;;;5071646;28;20048;-79
2023/01/29 00:05:58;;;;;;;25.95;14.45;;;;;;;;;;5059255;28;20029;-79
2023/01/29 00:08:24;;;;;;;26.48;14.30;;;;;;;;;;5065055;28;20392;-79
2023/01/29 00:10:50;;;;;;;29.05;14.27;;;;;;;;;;5064596;28;20055;-79
2023/01/29 00:13:16;;;;;;;22.67;13.35;;;;;;;;;;5068084;28;20497;-79
2023/01/29 00:15:42;;;;;;;26.30;14.90;;;;;;;;;;5053328;28;20525;-79
2023/01/29 00:18:08;;;;;;;27.58;14.52;;;;;;;;;;5054820;28;20071;-79
2023/01/29 00:20:34;;;;;;;26.00;13.70;;;;;;;;;;5071878;28;20090;-79
2023/01/29 00:23:01;;;;;;;23.60;13.55;;;;;;;;;;5039777;28;20120;-79
2023/01/29 00:25:27;;;;;;;26.23;13.60;;;;;;;;;;5051565;28;20490;-79
2023/01/29 00:27:53;;;;;;;24.35;13.32;;;;;;;;;;5051533;28;20103;-79
2023/01/29 00:30:20;;;;;;;25.58;13.10;;;;;;;;;;5039687;28;20127;-79
2023/01/29 00:32:46;;;;;;;25.08;12.68;;;;;;;;;;5059964;28;20048;-79
2023/01/29 00:35:12;;;;;;;23.42;13.50;;;;;;;;;;5055353;28;20029;-79
2023/01/29 00:37:38;;;;;;;21.70;12.68;;;;;;;;;;5051368;28;20037;-79
2023/01/29 00:40:04;;;;;;;22.38;13.27;;;;;;;;;;5051578;28;20037;-79
2023/01/29 00:45:15;;;;;;;23.75;12.27;;;;;;;;;;5051484;28;20076;-79
2023/01/29 00:47:41;;;;;;;20.35;11.63;;;;;;;;;;5059741;28;20482;-79
2023/01/29 00:50:11;;;;;;;21.55;12.30;;;;;;;;;;5070924;28;20063;-79
2023/01/29 00:52:39;;;;;;;21.10;11.88;;;;;;;;;;5052201;28;20055;-78
2023/01/29 00:55:06;;;;;;;22.83;11.63;;;;;;;;;;5065071;28;20555;-79
2023/01/29 00:57:33;;;;;;;22.73;11.20;;;;;;;;;;5051818;28;20398;-79
2023/01/29 00:59:59;;;;;;;19.33;11.30;;;;;;;;;;5062897;28;20040;-79
2023/01/29 01:05:12;;;;;;;19.77;10.88;;;;;;;;;;5065989;28;20209;-79
2023/01/29 01:07:39;;;;;;;22.38;10.40;;;;;;;;;;5069952;28;20093;-79
2023/01/29 01:10:21;;;;;;;18.10;10.07;;;;;;;;;;5045042;28;20109;-79
2023/01/29 01:12:57;;;;;;;19.00;10.00;;;;;;;;;;5060910;28;20379;-79
2023/01/29 01:15:23;;;;;;;;;;;;;;;;;;5066934;28;20453;-79
2023/01/29 01:17:52;;;;;;;19.15;9.40;;;;;;;;;;5056331;28;19970;-79
2023/01/29 01:20:18;;;;;;;17.48;9.25;;;;;;;;;;5068835;28;20041;-79
2023/01/29 01:22:44;;;;;;;18.27;9.05;;;;;;;;;;5054565;28;20056;-79
2023/01/29 01:25:10;;;;;;;16.20;9.35;;;;;;;;;;5054362;28;20124;-79
2023/01/29 01:27:39;;;;;;;16.15;9.27;;;;;;;;;;5037937;28;20436;-79
2023/01/29 01:30:07;;;;;;;19.90;9.73;;;;;;;;;;5051929;28;20091;-79
2023/01/29 01:32:33;;;;;;;15.95;9.15;;;;;;;;;;5038068;28;20448;-79
2023/01/29 01:34:59;;;;;;;18.77;10.20;;;;;;;;;;5056400;28;20568;-79
2023/01/29 01:37:25;;;;;;;18.23;9.95;;;;;;;;;;5066630;28;20043;-79
2023/01/29 01:39:56;;;;;;;18.02;9.30;;;;;;;;;;5054451;28;20488;-79
2023/01/29 01:42:23;;;;;;;17.42;9.77;;;;;;;;;;5041050;28;20048;-79
2023/01/29 01:44:54;;;;;;;16.75;9.25;;;;;;;;;;5054088;28;20037;-79
2023/01/29 01:47:29;;;;;;;18.95;10.07;;;;;;;;;;5057661;28;20130;-79
2023/01/29 01:49:56;;;;;;;16.35;9.02;;;;;;;;;;5054287;28;20036;-79
2023/01/29 01:52:22;;;;;;;17.73;10.00;;;;;;;;;;5068283;28;20036;-79
2023/01/29 01:54:49;;;;;;;19.38;10.95;;;;;;;;;;5067535;28;20060;-79
2023/01/29 01:57:23;;;;;;;17.60;10.48;;;;;;;;;;5066237;28;20040;-79
2023/01/29 01:59:52;;;;;;;17.80;9.93;;;;;;;;;;5054899;28;20094;-79
2023/01/29 02:10:45;;;;;;;18.95;10.35;;;;;;;;;;5053432;28;20106;-79
2023/01/29 02:13:11;;;;;;;17.95;10.73;;;;;;;;;;5058001;28;20077;-79
2023/01/29 02:15:40;;;;;;;18.27;10.82;;;;;;;;;;5063674;28;20124;-79
2023/01/29 02:18:07;;;;;;;20.48;10.15;;;;;;;;;;5070948;28;20078;-79
2023/01/29 02:20:34;;;;;;;19.67;10.77;;;;;;;;;;5066450;28;20398;-79
2023/01/29 02:23:01;;;;;;;18.85;10.07;;;;;;;;;;5053595;28;20048;-79
2023/01/29 02:25:45;;;;;;;18.63;10.57;;;;;;;;;;5036609;28;20102;-79
2023/01/29 02:28:24;;;;;;;19.77;11.00;;;;;;;;;;5053422;28;20091;-79
2023/01/29 02:30:53;;;;;;;19.55;10.48;;;;;;;;;;5065155;28;20048;-79
2023/01/29 02:33:38;;;;;;;21.20;11.02;;;;;;;;;;5053686;28;20041;-79
2023/01/29 02:36:04;;;;;;;20.20;11.18;;;;;;;;;;5026043;28;20072;-79
2023/01/29 02:38:39;;;;;;;19.73;10.57;;;;;;;;;;5052956;28;20045;-79
2023/01/29 02:41:28;;;;;;;20.42;11.20;;;;;;;;;;5061388;28;20048;-79
2023/01/29 02:44:16;;;;;;;23.30;11.48;;;;;;;;;;5055265;28;20048;-79
2023/01/29 02:46:54;;;;;;;19.50;11.23;;;;;;;;;;5065934;28;20488;-79
2023/01/29 02:49:29;;;;;;;23.48;12.15;;;;;;;;;;5040975;28;20450;-79
2023/01/29 02:52:09;;;;;;;23.27;11.40;;;;;;;;;;5053158;28;20106;-79
2023/01/29 02:54:41;;;;;;;22.30;11.40;;;;;;;;;;5060418;28;20053;-79
2023/01/29 02:57:15;;;;;;;19.90;11.30;;;;;;;;;;5059334;28;20120;-79
2023/01/29 02:59:45;;;;;;;22.92;11.90;;;;;;;;;;5022940;28;20043;-79
2023/01/29 03:02:15;;;;;;;20.85;11.30;;;;;;;;;;5056494;28;20049;-79
2023/01/29 03:04:45;;;;;;;22.63;11.52;;;;;;;;;;5057257;28;20037;-80
2023/01/29 03:07:39;;;;;;;21.80;12.65;;;;;;;;;;5064832;28;20123;-79
2023/01/29 03:10:01;;;;;;;22.23;12.05;;;;;;;;;;5047861;28;20044;-79
2023/01/29 03:12:34;;;;;;;21.55;12.27;;;;;;;;;;5042892;28;20502;-79
2023/01/29 03:15:23;;;;;;;25.00;13.25;;;;;;;;;;5052693;28;20482;-79
2023/01/29 03:17:53;;;;;;;23.95;12.77;;;;;;;;;;5065910;28;20501;-79
2023/01/29 03:20:24;;;;;;;24.10;13.13;;;;;;;;;;5052600;28;20047;-79
2023/01/29 03:22:52;;;;;;;24.58;12.95;;;;;;;;;;5052299;28;20503;-79
2023/01/29 03:33:51;;;;;;;23.75;13.48;;;;;;;;;;5045363;28;20040;-79
2023/01/29 03:36:19;;;;;;;29.63;14.75;;;;;;;;;;5058348;28;20037;-79
2023/01/29 03:38:45;;;;;;;25.38;14.90;;;;;;;;;;5055723;28;20037;-79
2023/01/29 03:41:11;;;;;;;27.00;14.20;;;;;;;;;;5072084;28;20051;-79
2023/01/29 03:43:46;;;;;;;25.83;15.20;;;;;;;;;;5057743;28;20059;-79
2023/01/29 03:46:17;;;;;;;29.85;15.68;;;;;;;;;;5060235;28;20056;-79
2023/01/29 03:48:57;;;;;;;26.88;14.52;;;;;;;;;;5051691;28;20053;-79
2023/01/29 03:51:33;;;;;;;27.88;15.90;;;;;;;;;;5064508;28;20047;-79
2023/01/29 03:54:18;;;;;;;28.13;15.48;;;;;;;;;;5055762;28;20203;-79
2023/01/29 03:56:53;;;;;;;30.02;16.33;;;;;;;;;;5061975;28;20115;-79
2023/01/29 03:59:38;;;;;;;27.50;16.17;;;;;;;;;;5071970;28;20040;-80
2023/01/29 04:02:06;;;;;;;29.48;15.85;;;;;;;;;;5054977;28;20088;-79
2023/01/29 04:04:35;;;;;;;30.45;16.73;;;;;;;;;;5053434;28;20040;-79
2023/01/29 04:07:12;;;;;;;28.30;15.95;;;;;;;;;;5051917;28;20129;-79
2023/01/29 04:09:50;;;;;;;27.05;16.25;;;;;;;;;;5035271;28;20406;-79
2023/01/29 04:12:19;;;;;;;27.05;15.40;;;;;;;;;;5051768;28;20045;-79
2023/01/29 04:14:47;;;;;;;30.95;15.88;;;;;;;;;;5056259;28;20036;-79
2023/01/29 04:17:16;;;;;;;30.15;15.82;;;;;;;;;;5071893;28;20397;-79
2023/01/29 04:19:42;;;;;;;28.45;16.00;;;;;;;;;;5057453;28;20036;-79
2023/01/29 04:22:13;;;;;;;29.40;15.80;;;;;;;;;;5055042;28;20047;-79
2023/01/29 04:24:41;;;;;;;29.27;16.30;;;;;;;;;;5069065;28;20044;-79
2023/01/29 04:27:22;;;;;;;29.38;16.40;;;;;;;;;;5034924;28;20048;-79
2023/01/29 04:30:07;;;;;;;27.45;15.88;;;;;;;;;;5065478;28;20549;-79
2023/01/29 04:32:52;;;;;;;30.67;16.52;;;;;;;;;;5051628;28;20045;-79
2023/01/29 04:35:18;;;;;;;31.65;17.02;;;;;;;;;;5058691;28;20028;-79
2023/01/29 04:37:49;;;;;;;30.33;17.45;;;;;;;;;;5060753;28;20120;-79
2023/01/29 04:40:21;;;;;;;29.38;16.30;;;;;;;;;;5059128;28;20039;-79
2023/01/29 04:43:11;;;;;;;31.80;16.63;;;;;;;;;;5064099;28;20044;-79
2023/01/29 04:45:55;;;;;;;29.00;17.35;;;;;;;;;;5047470;28;20045;-79
2023/01/29 04:48:29;;;;;;;28.13;16.35;;;;;;;;;;5071884;28;20043;-79
2023/01/29 04:51:05;;;;;;;30.05;18.13;;;;;;;;;;5071112;28;20043;-79
2023/01/29 04:53:45;;;;;;;29.02;17.98;;;;;;;;;;5075204;28;20080;-79
2023/01/29 04:56:28;;;;;;;31.05;18.30;;;;;;;;;;5062398;28;20053;-79
2023/01/29 04:58:56;;;;;;;35.50;19.08;;;;;;;;;;5060684;28;20045;-79
2023/01/29 05:01:28;;;;;;;29.52;17.83;;;;;;;;;;5054920;28;20044;-79
2023/01/29 05:03:55;;;;;;;36.85;18.13;;;;;;;;;;5053915;28;20047;-79
2023/01/29 05:06:23;;;;;;;31.63;18.33;;;;;;;;;;5038391;28;20040;-79
2023/01/29 05:08:50;;;;;;;31.98;17.70;;;;;;;;;;5055987;28;20045;-79
2023/01/29 05:11:18;;;;;;;30.52;18.48;;;;;;;;;;5042202;28;20098;-79
2023/01/29 05:13:44;;;;;;;30.88;18.02;;;;;;;;;;5064537;28;20041;-79
2023/01/29 05:16:21;;;;;;;31.50;18.52;;;;;;;;;;5055042;28;20120;-79
2023/01/29 05:18:47;;;;;;;29.13;18.05;;;;;;;;;;5054765;28;20033;-79
2023/01/29 05:21:14;;;;;;;33.47;19.70;;;;;;;;;;5069223;28;20070;-79
2023/01/29 05:23:51;;;;;;;34.33;19.52;;;;;;;;;;5054847;28;20037;-79
2023/01/29 05:29:03;;;;;;;35.88;18.60;;;;;;;;;;5055945;28;20037;-79
2023/01/29 05:31:29;;;;;;;32.35;19.42;;;;;;;;;;5068761;28;20068;-79
2023/01/29 05:33:55;;;;;;;37.35;20.10;;;;;;;;;;5054516;28;20117;-79
2023/01/29 05:36:21;;;;;;;30.77;19.40;;;;;;;;;;5054477;28;20072;-79
2023/01/29 05:38:47;;;;;;;31.98;19.63;;;;;;;;;;5054432;28;20091;-79
2023/01/29 05:41:13;;;;;;;33.60;20.08;;;;;;;;;;5039372;28;20050;-79
2023/01/29 05:43:45;;;;;;;34.35;21.20;;;;;;;;;;5060038;28;20041;-79
2023/01/29 05:46:11;;;;;;;32.70;19.77;;;;;;;;;;5063609;28;20773;-79
2023/01/29 05:48:37;;;;;;;34.30;20.98;;;;;;;;;;5053959;28;20433;-77
2023/01/29 05:51:04;;;;;;;34.42;21.27;;;;;;;;;;5053525;28;20411;-77
2023/01/29 05:53:30;;;;;;;34.22;21.10;;;;;;;;;;5053905;28;20134;-77
2023/01/29 05:56:00;;;;;;;34.92;21.38;;;;;;;;;;5053897;28;20045;-78
2023/01/29 05:58:26;;;;;;;33.15;21.60;;;;;;;;;;5053849;28;20099;-78
2023/01/29 06:00:52;;;;;;;34.05;21.23;;;;;;;;;;5068072;28;20040;-78
2023/01/29 06:03:18;;;;;;;37.97;22.00;;;;;;;;;;5053997;28;20041;-78
2023/01/29 06:05:44;;;;;;;39.20;22.55;;;;;;;;;;5054140;28;20044;-78
2023/01/29 06:08:10;;;;;;;34.83;21.70;;;;;;;;;;5053828;28;20049;-78
2023/01/29 06:10:36;;;;;;;34.33;21.83;;;;;;;;;;5053589;28;20049;-78
2023/01/29 06:13:03;;;;;;;40.42;23.38;;;;;;;;;;5059528;28;20040;-78
2023/01/29 06:15:29;;;;;;;38.20;23.00;;;;;;;;;;5073598;28;20032;-78
2023/01/29 06:17:55;;;;;;;36.78;23.55;;;;;;;;;;5073752;28;20549;-78
2023/01/29 06:20:21;;;;;;;37.58;23.35;;;;;;;;;;5066348;28;20045;-78
2023/01/29 06:22:47;;;;;;;37.83;23.25;;;;;;;;;;5068338;28;20055;-78
2023/01/29 06:25:13;;;;;;;39.67;23.35;;;;;;;;;;5056735;28;20036;-78
2023/01/29 06:27:39;;;;;;;40.40;24.45;;;;;;;;;;5060558;28;20114;-78
2023/01/29 06:30:06;;;;;;;44.38;25.77;;;;;;;;;;5036710;28;20041;-78
2023/01/29 06:32:32;;;;;;;40.50;25.52;;;;;;;;;;5053181;28;20137;-78
2023/01/29 06:34:58;;;;;;;40.33;24.77;;;;;;;;;;5056106;28;20036;-78
2023/01/29 06:37:24;;;;;;;42.65;27.52;;;;;;;;;;5064239;28;20043;-78
2023/01/29 06:39:50;;;;;;;43.20;26.88;;;;;;;;;;5053215;28;20041;-78
2023/01/29 06:42:16;;;;;;;46.05;27.38;;;;;;;;;;5053335;28;20127;-78
2023/01/29 06:44:42;;;;;;;44.30;27.27;;;;;;;;;;5066244;28;20045;-78
2023/01/29 06:47:08;;;;;;;45.08;27.17;;;;;;;;;;5053987;28;20449;-78
2023/01/29 06:49:34;;;;;;;47.20;27.70;;;;;;;;;;5064730;28;20052;-78
2023/01/29 06:52:01;;;;;;;48.72;29.23;;;;;;;;;;5068716;28;20493;-78
2023/01/29 06:54:27;;;;;;;46.33;28.00;;;;;;;;;;5054482;28;20514;-78
2023/01/29 06:56:53;;;;;;;47.97;27.25;;;;;;;;;;5053225;28;20033;-78
2023/01/29 06:59:19;;;;;;;49.55;28.33;;;;;;;;;;5052761;28;20079;-78
2023/01/29 07:01:45;;;;;;;44.97;27.60;;;;;;;;;;5036024;28;20048;-78
2023/01/29 07:04:11;;;;;;;46.88;28.45;;;;;;;;;;5050135;28;20044;-78
2023/01/29 07:06:37;;;;;;;45.60;27.50;;;;;;;;;;5052531;28;20090;-78
2023/01/29 07:09:04;;;;;;;45.10;28.00;;;;;;;;;;5066128;28;20045;-78
2023/01/29 07:11:30;;;;;;;48.10;27.95;;;;;;;;;;5058430;28;20066;-78
2023/01/29 07:13:56;;;;;;;45.53;26.92;;;;;;;;;;5060919;28;20502;-78
2023/01/29 07:16:23;;;;;;;45.33;26.33;;;;;;;;;;5052342;28;20401;-78
2023/01/29 07:18:50;;;;;;;48.03;28.35;;;;;;;;;;5036040;28;20124;-78
2023/01/29 07:21:16;;;;;;;49.15;27.95;;;;;;;;;;5051993;28;20041;-78
2023/01/29 07:23:42;;;;;;;46.00;27.55;;;;;;;;;;5060597;28;20051;-78
2023/01/29 07:26:08;;;;;;;51.08;27.17;;;;;;;;;;5058021;28;20049;-78
2023/01/29 07:28:37;;;;;;;44.65;26.20;;;;;;;;;;5067281;28;20040;-78
2023/01/29 07:31:04;;;;;;;47.60;27.52;;;;;;;;;;5052064;28;20059;-78
2023/01/29 07:33:30;;;;;;;46.13;27.08;;;;;;;;;;5052160;28;20075;-78
2023/01/29 07:35:56;;;;;;;50.17;27.80;;;;;;;;;;5052273;28;20541;-78
2023/01/29 07:38:22;;;;;;;46.13;25.75;;;;;;;;;;5051902;28;20029;-78
2023/01/29 07:40:49;;;;;;;51.35;27.70;;;;;;;;;;5062379;28;20087;-78
2023/01/29 07:43:15;;;;;;;45.13;25.70;;;;;;;;;;5057494;28;20044;-78
2023/01/29 07:45:42;;;;;;;47.30;27.35;;;;;;;;;;5071977;28;20040;-78
2023/01/29 07:48:10;;;;;;;48.35;27.20;;;;;;;;;;5058349;28;20090;-78
2023/01/29 07:50:36;;;;;;;46.17;27.00;;;;;;;;;;5067476;28;20041;-78
2023/01/29 07:53:03;;;;;;;48.92;27.30;;;;;;;;;;5072198;28;20043;-78
2023/01/29 07:55:29;;;;;;;48.53;26.80;;;;;;;;;;5055350;28;20127;-78
2023/01/29 07:57:56;;;;;;;46.70;26.20;;;;;;;;;;5044155;28;20033;-78
2023/01/29 08:00:22;;;;;;;46.47;24.92;;;;;;;;;;5059304;28;20128;-78
2023/01/29 08:02:48;;;;;;;45.47;24.95;;;;;;;;;;5055822;28;20036;-78
2023/01/29 08:05:15;;;;;;;44.92;25.20;;;;;;;;;;5072715;28;20123;-78
2023/01/29 08:07:41;;;;;;;46.53;25.92;;;;;;;;;;5055165;28;20142;-78
2023/01/29 08:10:07;;;;;;;42.45;24.42;;;;;;;;;;5071467;28;20477;-78
2023/01/29 08:12:33;;;;;;;48.08;25.00;;;;;;;;;;5071030;28;20048;-78
2023/01/29 08:14:59;;;;;;;47.35;26.65;;;;;;;;;;5024663;28;20075;-78
2023/01/29 08:17:25;;;;;;;46.92;25.40;;;;;;;;;;5067865;28;20127;-78
2023/01/29 08:19:51;;;;;;;45.28;24.90;;;;;;;;;;5056694;28;20040;-77
2023/01/29 08:22:17;;;;;;;44.13;25.00;;;;;;;;;;5058673;28;20059;-78
2023/01/29 08:24:43;;;;;;;45.38;25.33;;;;;;;;;;5055383;28;20040;-78
2023/01/29 08:27:09;;;;;;;48.70;25.10;;;;;;;;;;5052574;28;20545;-78
2023/01/29 08:29:35;;;;;;;44.22;25.00;;;;;;;;;;5052181;28;20448;-78
2023/01/29 08:32:01;;;;;;;48.20;25.58;;;;;;;;;;5051455;28;20059;-78
2023/01/29 08:34:27;;;;;;;49.30;25.88;;;;;;;;;;5051840;28;20072;-78
2023/01/29 08:36:53;;;;;;;48.25;25.60;;;;;;;;;;5065645;28;20493;-78
2023/01/29 08:39:19;;;;;;;47.50;25.52;;;;;;;;;;5034875;28;20123;-78
2023/01/29 08:41:45;;;;;;;45.88;24.35;;;;;;;;;;5065798;28;20040;-78
2023/01/29 08:44:11;;;;;;;45.80;24.17;;;;;;;;;;5051776;28;20045;-78
2023/01/29 08:46:39;;;;;;;48.83;26.33;;;;;;;;;;5052637;28;20045;-78
2023/01/29 08:49:07;;;;;;;44.30;23.67;;;;;;;;;;5051251;28;20041;-78
2023/01/29 08:51:33;;;;;;;44.42;23.70;;;;;;;;;;5060758;28;20408;-78
2023/01/29 08:53:59;;;;;;;48.45;26.08;;;;;;;;;;5069650;28;20099;-78
2023/01/29 08:56:25;;;;;;;49.55;25.48;;;;;;;;;;5034951;28;20056;-78
2023/01/29 08:58:51;;;;;;;44.55;24.33;;;;;;;;;;5048953;28;20051;-78
2023/01/29 09:01:17;;;;;;;51.25;25.50;;;;;;;;;;5056659;28;20044;-78
2023/01/29 09:03:44;;;;;;;45.30;23.60;;;;;;;;;;5059644;28;20429;-78
2023/01/29 09:06:12;;;;;;;51.38;25.23;;;;;;;;;;5055218;28;20555;-78
2023/01/29 09:08:38;;;;;;;44.97;24.20;;;;;;;;;;5061232;28;20049;-78
2023/01/29 09:11:04;;;;;;;43.95;23.85;;;;;;;;;;5065205;28;20123;-78
2023/01/29 09:13:30;;;;;;;43.47;23.25;;;;;;;;;;5050906;28;20037;-78
2023/01/29 09:16:00;;;;;;;46.10;23.60;;;;;;;;;;5065150;28;20090;-78
2023/01/29 09:18:26;;;;;;;41.65;23.33;;;;;;;;;;5072413;28;20033;-78
2023/01/29 09:20:53;;;;;;;46.00;23.73;;;;;;;;;;5071400;28;20044;-78
2023/01/29 09:23:19;;;;;;;41.95;22.90;;;;;;;;;;5059667;28;20651;-78
2023/01/29 09:25:45;;;;;;;40.70;22.10;;;;;;;;;;5058096;28;20127;-78
2023/01/29 09:28:12;;;;;;;40.97;23.10;;;;;;;;;;5074284;28;20063;-78
2023/01/29 09:30:38;;;;;;;43.42;22.73;;;;;;;;;;5074177;28;20041;-78
2023/01/29 09:33:05;;;;;;;40.08;22.15;;;;;;;;;;5060506;28;20432;-78
2023/01/29 09:35:31;;;;;;;43.53;22.98;;;;;;;;;;5047595;28;20063;-78
2023/01/29 09:37:57;;;;;;;42.65;23.20;;;;;;;;;;5039518;28;20041;-78
2023/01/29 09:40:40;;;;;;;46.35;23.27;;;;;;;;;;5074182;28;20040;-78
2023/01/29 09:43:11;;;;;;;44.28;23.73;;;;;;;;;;5060178;28;20051;-78
2023/01/29 09:45:42;;;;;;;43.15;24.00;;;;;;;;;;5064746;28;20099;-78
2023/01/29 09:48:10;;;;;;;42.03;22.65;;;;;;;;;;5069639;28;20041;-78
2023/01/29 09:50:38;;;;;;;44.53;22.92;;;;;;;;;;5071991;28;20036;-78
2023/01/29 09:53:11;;;;;;;43.10;22.92;;;;;;;;;;5045594;28;20619;-77
2023/01/29 09:55:50;;;;;;;43.53;22.88;;;;;;;;;;5072139;28;20053;-78
2023/01/29 09:58:27;;;;;;;40.83;21.77;;;;;;;;;;5053998;28;20044;-78
2023/01/29 10:01:12;;;;;;;40.60;23.02;;;;;;;;;;5067945;28;20443;-78
2023/01/29 10:03:44;;;;;;;42.28;23.40;;;;;;;;;;5064563;28;20048;-78
2023/01/29 10:06:10;;;;;;;47.63;23.67;;;;;;;;;;5055827;28;20445;-79
2023/01/29 10:08:39;;;;;;;43.78;23.20;;;;;;;;;;5063685;28;20385;-78
2023/01/29 10:11:08;;;;;;;45.22;23.15;;;;;;;;;;5071037;28;20127;-78
2023/01/29 10:13:40;;;;;;;45.28;23.77;;;;;;;;;;5062259;28;20040;-78
2023/01/29 10:16:14;;;;;;;42.28;22.45;;;;;;;;;;5042946;28;20123;-78
2023/01/29 10:18:53;;;;;;;45.13;24.23;;;;;;;;;;5073531;28;20064;-78
2023/01/29 10:21:31;;;;;;;45.28;22.80;;;;;;;;;;5070436;28;20119;-78
2023/01/29 10:24:03;;;;;;;45.90;24.08;;;;;;;;;;5047013;28;20040;-78
2023/01/29 10:26:32;;;;;;;50.03;24.38;;;;;;;;;;5059066;28;20576;-78
2023/01/29 10:28:59;;;;;;;46.28;23.58;;;;;;;;;;5063668;28;20045;-78
2023/01/29 10:31:33;;;;;;;43.75;22.73;;;;;;;;;;5068370;28;20045;-78
2023/01/29 10:34:14;;;;;;;43.03;23.52;;;;;;;;;;5063991;28;20045;-78
2023/01/29 10:36:43;;;;;;;44.83;24.08;;;;;;;;;;5055174;28;20382;-78
2023/01/29 10:39:17;;;;;;;44.90;23.95;;;;;;;;;;5072992;28;20160;-78
2023/01/29 10:42:06;;;;;;;46.15;23.20;;;;;;;;;;5072960;28;20497;-78
2023/01/29 10:44:39;;;;;;;43.45;23.55;;;;;;;;;;5033538;28;20449;-78
2023/01/29 10:47:24;;;;;;;46.08;23.85;;;;;;;;;;5051427;28;20056;-80
2023/01/29 10:49:56;;;;;;;44.22;22.92;;;;;;;;;;5053010;28;20045;-79
2023/01/29 10:52:32;;;;;;;42.20;22.30;;;;;;;;;;5065741;28;20045;-79
2023/01/29 10:55:17;;;;;;;46.28;23.48;;;;;;;;;;5072321;28;20045;-77
2023/01/29 10:57:43;;;;;;;41.47;22.17;;;;;;;;;;5054054;28;20048;-77
2023/01/29 11:00:12;;;;;;;42.42;22.40;;;;;;;;;;5052425;28;20041;-77
2023/01/29 11:02:46;;;;;;;37.78;21.77;;;;;;;;;;5069227;28;20033;-77
2023/01/29 11:05:26;;;;;;;42.13;21.88;;;;;;;;;;5055367;28;20040;-77
2023/01/29 11:08:00;;;;;;;39.03;21.52;;;;;;;;;;5072533;28;20389;-77
2023/01/29 11:10:26;;;;;;;40.25;21.70;;;;;;;;;;5072462;28;20482;-77
2023/01/29 11:12:52;;;;;;;38.03;21.50;;;;;;;;;;5055961;28;20397;-77
2023/01/29 11:15:33;;;;;;;43.65;22.45;;;;;;;;;;5072369;28;20074;-77
2023/01/29 11:18:02;;;;;;;40.17;21.33;;;;;;;;;;5058264;28;20068;-77
2023/01/29 11:20:29;;;;;;;37.63;21.70;;;;;;;;;;5062265;28;20119;-78
2023/01/29 11:22:56;;;;;;;40.70;21.55;;;;;;;;;;5037534;28;20045;-78
2023/01/29 11:25:23;;;;;;;39.05;20.83;;;;;;;;;;5081298;28;20490;-78
2023/01/29 11:27:54;;;;;;;42.85;21.17;;;;;;;;;;5065875;28;20048;-78
2023/01/29 11:30:30;;;;;;;39.15;21.80;;;;;;;;;;5064923;28;20049;-77
2023/01/29 11:33:00;;;;;;;44.22;20.75;;;;;;;;;;5066531;28;20135;-77
2023/01/29 11:35:29;;;;;;;38.83;21.50;;;;;;;;;;5065084;28;20037;-77
2023/01/29 11:38:05;;;;;;;40.25;20.75;;;;;;;;;;5064934;28;20046;-77
2023/01/29 11:40:36;;;;;;;39.13;21.95;;;;;;;;;;5038400;28;20081;-78
2023/01/29 11:43:12;;;;;;;38.35;22.27;;;;;;;;;;5065126;28;20413;-77
2023/01/29 11:45:39;;;;;;;40.88;23.00;;;;;;;;;;5055097;28;20063;-77
2023/01/29 11:48:11;;;;;;;43.63;22.98;;;;;;;;;;5064114;28;20048;-77
2023/01/29 11:50:37;;;;;;;45.60;24.08;;;;;;;;;;5065410;28;20094;-78
2023/01/29 11:53:05;;;;;;;45.33;23.25;;;;;;;;;;5059740;28;20037;-78
2023/01/29 11:55:33;;;;;;;44.47;22.95;;;;;;;;;;5056541;28;20057;-78
2023/01/29 11:57:59;;;;;;;45.67;23.73;;;;;;;;;;5051395;28;20037;-78
2023/01/29 12:00:30;;;;;;;42.50;23.75;;;;;;;;;;5051747;28;20037;-78
2023/01/29 12:03:06;;;;;;;42.08;23.20;;;;;;;;;;5070554;28;20051;-78
2023/01/29 12:05:32;;;;;;;43.17;22.83;;;;;;;;;;5073095;28;20045;-78
2023/01/29 12:07:59;;;;;;;44.40;23.65;;;;;;;;;;5069140;28;20040;-78
2023/01/29 12:10:32;;;;;;;44.28;24.08;;;;;;;;;;5062347;28;20119;-78
2023/01/29 12:13:04;;;;;;;45.75;25.42;;;;;;;;;;5036636;28;20032;-78
2023/01/29 12:15:30;;;;;;;46.80;23.48;;;;;;;;;;5062506;28;20040;-77
2023/01/29 12:17:59;;;;;;;46.13;24.63;;;;;;;;;;5054692;28;20040;-79
2023/01/29 12:20:29;;;;;;;44.63;25.27;;;;;;;;;;5051650;28;20394;-78
2023/01/29 12:22:58;;;;;;;47.75;23.63;;;;;;;;;;5034366;28;20135;-78
2023/01/29 12:25:42;;;;;;;45.25;24.48;;;;;;;;;;5051360;28;20033;-79
2023/01/29 12:28:19;;;;;;;47.22;24.95;;;;;;;;;;5051957;28;20192;-78
2023/01/29 12:30:50;;;;;;;44.30;24.55;;;;;;;;;;5051102;28;20075;-78
2023/01/29 12:33:28;;;;;;;48.05;25.80;;;;;;;;;;5066170;28;20398;-78
2023/01/29 12:35:58;;;;;;;48.00;25.63;;;;;;;;;;5051204;28;20056;-79
2023/01/29 12:38:25;;;;;;;48.60;25.65;;;;;;;;;;5051203;28;20170;-78
2023/01/29 12:40:54;;;;;;;51.70;26.65;;;;;;;;;;5051294;28;20049;-79
2023/01/29 12:43:49;;;;;;;50.97;26.15;;;;;;;;;;5051194;28;20053;-80
2023/01/29 12:46:21;;;;;;;53.63;27.50;;;;;;;;;;5063684;28;20053;-80
2023/01/29 12:48:47;;;;;;;56.05;28.27;;;;;;;;;;5034383;28;20048;-77
2023/01/29 12:51:16;;;;;;;50.83;26.30;;;;;;;;;;5061807;28;20071;-78
2023/01/29 12:54:01;;;;;;;55.13;27.38;;;;;;;;;;5071388;28;20178;-78
2023/01/29 12:56:33;;;;;;;60.47;28.02;;;;;;;;;;5050945;28;20080;-78
2023/01/29 12:59:02;;;;;;;57.25;27.90;;;;;;;;;;5065195;28;20075;-78
2023/01/29 13:01:38;;;;;;;57.80;28.77;;;;;;;;;;5054276;28;20033;-78
2023/01/29 13:04:05;;;;;;;;;;;;;;;;;;5056684;28;20045;-78
2023/01/29 13:06:40;;;;;;;66.18;29.42;;;;;;;;;;5062845;28;19954;-78
2023/01/29 13:09:07;;;;;;;60.33;28.17;;;;;;;;;;5074462;28;20078;-78
2023/01/29 13:11:37;;;;;;;55.03;27.73;;;;;;;;;;5054490;28;20040;-78
2023/01/29 13:14:13;;;;;;;57.53;27.63;;;;;;;;;;5067531;28;20575;-79
2023/01/29 13:16:42;;;;;;;58.05;28.40;;;;;;;;;;5068607;28;20367;-79
2023/01/29 13:19:23;;;;;;;53.50;26.52;;;;;;;;;;5054521;28;20037;-79
2023/01/29 13:21:51;;;;;;;57.17;28.38;;;;;;;;;;5041155;28;20055;-79
2023/01/29 13:24:19;;;;;;;58.38;27.75;;;;;;;;;;5068496;28;20437;-79
2023/01/29 13:26:46;;;;;;;52.97;25.50;;;;;;;;;;5056590;28;20085;-79
2023/01/29 13:29:29;;;;;;;58.38;28.00;;;;;;;;;;5070098;28;20055;-79
2023/01/29 13:31:56;;;;;;;56.38;27.77;;;;;;;;;;5071013;28;20041;-79
2023/01/29 13:34:30;;;;;;;56.90;26.85;;;;;;;;;;5051361;28;20351;-79
2023/01/29 13:37:16;;;;;;;55.53;27.27;;;;;;;;;;5048889;28;20500;-79
2023/01/29 13:39:48;;;;;;;55.95;27.08;;;;;;;;;;5052538;28;20053;-79
2023/01/29 13:42:19;;;;;;;56.60;29.02;;;;;;;;;;5062345;28;20051;-78
2023/01/29 13:44:56;;;;;;;59.53;28.20;;;;;;;;;;5042666;28;20516;-79
2023/01/29 13:47:22;;;;;;;64.10;28.67;;;;;;;;;;5037914;28;20076;-79
2023/01/29 13:49:55;;;;;;;57.03;28.25;;;;;;;;;;5054309;28;20049;-79
2023/01/29 13:52:39;;;;;;;67.40;30.15;;;;;;;;;;5071644;28;20119;-79
2023/01/29 13:55:15;;;;;;;59.13;27.77;;;;;;;;;;5048171;28;20040;-78
2023/01/29 13:57:44;;;;;;;62.00;29.33;;;;;;;;;;5070129;28;20493;-79
2023/01/29 14:00:20;;;;;;;57.92;28.33;;;;;;;;;;5064474;28;20094;-79
2023/01/29 14:02:47;;;;;;;62.90;30.47;;;;;;;;;;5059787;28;20039;-79
2023/01/29 14:05:32;;;;;;;60.33;29.45;;;;;;;;;;5073667;28;20318;-79
2023/01/29 14:08:14;;;;;;;45.97;22.23;;;;;;;;;;5054885;28;20045;-79
2023/01/29 14:10:41;;;;;;;64.72;30.08;;;;;;;;;;5066503;28;20303;-79
2023/01/29 14:13:22;;;;;;;62.13;31.35;;;;;;;;;;5050603;28;20091;-79
2023/01/29 14:15:57;;;;;;;65.35;29.38;;;;;;;;;;5053932;28;20512;-79
2023/01/29 14:18:27;;;;;;;64.93;29.37;;;;;;;;;;5053365;28;20037;-79
2023/01/29 14:20:53;;;;;;;62.95;30.42;;;;;;;;;;5053511;28;20287;-79
2023/01/29 14:23:22;;;;;;;70.10;32.03;;;;;;;;;;5039498;28;20048;-79
2023/01/29 14:25:48;;;;;;;68.15;30.40;;;;;;;;;;5054641;28;20091;-79
2023/01/29 14:28:19;;;;;;;69.43;32.47;;;;;;;;;;5053322;28;20379;-78
2023/01/29 14:30:48;;;;;;;72.45;32.47;;;;;;;;;;5053241;28;20048;-78
2023/01/29 14:33:23;;;;;;;61.22;30.42;;;;;;;;;;5053249;28;20044;-79
2023/01/29 14:35:50;;;;;;;49.60;24.33;;;;;;;;;;5053635;28;20048;-79
2023/01/29 14:38:16;;;;;;;69.10;32.47;;;;;;;;;;5053015;28;20037;-79
2023/01/29 14:40:44;;;;;;;70.30;31.98;;;;;;;;;;5062460;28;20044;-79
2023/01/29 14:43:19;;;;;;;69.65;31.65;;;;;;;;;;5072479;28;20040;-79
2023/01/29 14:45:46;;;;;;;75.82;33.58;;;;;;;;;;5065039;28;20071;-79
2023/01/29 14:48:31;;;;;;;68.40;32.25;;;;;;;;;;5066550;28;20048;-79
2023/01/29 14:50:58;;;;;;;71.15;32.95;;;;;;;;;;5052679;28;20076;-79
2023/01/29 14:53:28;;;;;;;68.20;31.15;;;;;;;;;;5052624;28;20041;-79
2023/01/29 14:56:10;;;;;;;68.18;30.85;;;;;;;;;;5052234;28;20052;-79
2023/01/29 14:58:36;;;;;;;65.10;31.05;;;;;;;;;;5052720;28;20094;-79
2023/01/29 15:01:04;;;;;;;69.35;32.72;;;;;;;;;;5052853;28;20393;-79